Sheffield Township, Ohio
Current Conditions -  °F | °C
As of 7:53 PM on Friday 21 Nov 2014 (Local Time) from KLPR Reporting Station
Clear Clear  
Wind Chill: 10°   Ceiling: Unl
Heat Index: 18°   Visibility: 10mi
Dew Point: 10°   Wind: 6mph
Humidity: 71%   Direction: 170°S
Pressure: 30.44"   Gusts: NA
Location:  41.465°N, 82.0929°W
Report Text: KLPR 220053Z AUTO 17005KT 10SM CLR M08/M12 A3044 RMK AO2 SLP322 T10781122 TSNO
Loading
Personal Weather Stations






























Interactive Weather Map New forecast layout! Learn more

10-Day Weather Forecast

Advertisements
Track Severe Weather on mobile